AirNav   Air Wisconsin pilot careers
 
 1420 users online  

0TX6 Elm Creek Airpark
Seguin, Texas, USA

GOING TO SEGUIN?


FAA INFORMATION EFFECTIVE 04 JANUARY 2018

Location

FAA Identifier: 0TX6
Lat/Long: 29-30-18.1500N / 097-59-49.7250W
29-30.302500N / 097-59.828750W
29.5050417 / -97.9971458
(estimated)
Elevation: 550 ft. / 168 m (estimated)
Variation: 07E (1985)
From city: 4 miles SSW of SEGUIN, TX
Time zone: UTC -6 (UTC -5 during Daylight Saving Time)
Zip code: 78155

Airport Operations

Airport use: Private use. Permission required prior to landing
Activation date: 11/1989
Control tower: no
ARTCC: HOUSTON CENTER
FSS: SAN ANGELO FLIGHT SERVICE STATION
Attendance: UNATNDD
Wind indicator: yes
Segmented circle: no

Airport Communications

WX ASOS at BAZ (12 nm N): 119.325 (830-629-7979)

Nearby radio navigation aids

VOR radial/distance  VOR name  Freq  Var
RNDr088/15.1RANDOLPH VORTAC112.3005E
SATr101/25.6SAN ANTONIO VORTAC116.8008E
SSFr049/(27.6)STINSON VOR108.4009E

Airport Services

Runway Information

Runway 14/32

Dimensions: 1925 x 75 ft. / 587 x 23 m
Surface: turf
Runway edge markings: RY 14/32 OUTLINED WITH CONC DISKS.
RUNWAY 14  RUNWAY 32
Latitude: 29-30.445000N29-30.160000N
Longitude: 097-59.909167W097-59.748333W
Elevation: 550.0 ft.550.0 ft.
Traffic pattern: leftright
Displaced threshold: no50 ft.
Obstructions: 20 ft. pline, marked, 500 ft. from runwaytrees

Airport Ownership and Management from official FAA records

Ownership: Privately-owned
Owner: ELM CREEK HOMEOWNERS ASSN INC
100 TAILWIND DRIVE
SEGUIN, TX 78155-0791
Phone 830-303-3640
Manager: JACK MERRELL
100 TAILWIND DRIVE
SEGUIN, TX 78155-0791
Phone 830-303-3640

Airport Operational Statistics

Aircraft based on the field: 20
Single engine airplanes: 20
    

Instrument Procedures

There are no published instrument procedures at 0TX6.

Some nearby airports with instrument procedures:

KBAZ - New Braunfels Regional Airport (12 nm N)
KRND - Randolph Air Force Base (15 nm W)
KHYI - San Marcos Regional Airport (24 nm N)
KSAT - San Antonio International Airport (25 nm W)
KSSF - Stinson Municipal Airport (27 nm W)
 
Loc | Ops | Rwys | IFR | FBO | Links
Com | Nav | Svcs | Stats | Notes


 
Area around 0TX6 (Elm Creek Airpark)
 
Road maps at: MapQuest Bing Google
 
Aerial photo
WARNING: Photo may not be current or correct
Aerial photo of 0TX6 (Elm Creek Airpark)
Do you have a better or more recent aerial photo of Elm Creek Airpark that you would like to share? If so, please send us your photo.

 
Sectional chart

 
Airport distance calculator
Flying to Elm Creek Airpark? Find the distance to fly.

From to 0TX6

Sunrise and sunset
Times for 19-Jan-2018
 Local
(UTC-6)
 Zulu
(UTC)
Morning civil twilight07:0213:02
Sunrise07:2813:28
Sunset17:5823:58
Evening civil twilight18:2300:23

Current date and time
Zulu (UTC)  19-Jan-2018 19:21:10
Local (UTC-6)  19-Jan-2018 13:21:10
 
METAR
KBAZ 
13nm N 
191858Z 00000KT 4SM -RA BR OVC012 08/05 A3018 RMK AO2 RAB54 P0000 T00830050
KRND 
14nm W 
191857Z 00000KT 2SM BR OVC005 08/06 A3018 RMK DZE1757DZB1759E26DZB31E41 PRESFR SLP222 P0000 T00760064
KHYI 
24nm N 
191856Z 00000KT 10SM OVC014 09/03 A3020 RMK AO2 SLP224 T00890033 $
KSAT 
25nm W 
191851Z 00000KT 1 1/2SM R13R/5000VP6000FT -DZ BR OVC006 08/07 A3019 RMK AO2 RAE48DZB48 PRESFR SLP218 VIS N 1 P0002 T00780067
TAF
KRND 
14nm W 
191800Z 1918/2024 VRB06KT 3200 -DZ BR OVC006 QNH3020INS TEMPO 1918/1921 OVC007 BECMG 1920/1921 VRB06KT 9999 NSW OVC010 QNH3006INS BECMG 2002/2003 VRB04KT 4800 BR OVC009 510102 QNH3006INS BECMG 2005/2006 VRB04KT 3200 BR OVC004 510102 QNH3002INS TEMPO 2010/2013 0800 FG OVC001 BECMG 2015/2016 17006KT 8000 BR OVC007 QNH2996INS BECMG 2017/2018 18009KT 9999 NSW OVC009 QNH2996INS BECMG 2020/2021 18010G15KT 9999 OVC012 QNH2994INS TX13/1921Z TN05/2011Z
NOTAMs
Click for the latest NOTAMs
NOTAMs are issued by the DoD/FAA and will open in a separate window not controlled by AirNav.

 

 
 

Would you like to see your business listed on this page?

 If your business provides an interesting product or service to pilots, flight crews, aircraft, or users of the Elm Creek Airpark, you should consider listing it here.  To start the listing process, click on the button below
 
Add a business
 

Other Pages about Elm Creek Airpark

elmcreekap.org
 
Update a link
 
Copyright © AirNav, LLC. All rights reserved. Privacy Policy  Contact